Mahaffey, Pennsylvania
Current Conditions -  °F | °C
As of 3:07 AM on Tuesday 21 Oct 2014 (Local Time) from KFIG Reporting Station
Light Rain Light Rain  
Wind Chill: 46°   Ceiling: 1100
Heat Index: 46°   Visibility: 4mi
Dew Point: 45°   Wind: 3mph
Humidity: 96%   Direction: 220°SW
Pressure: 29.84"   Gusts: NA
Location:  40.87°N, 78.72°W
Report Text: KFIG 210707Z AUTO 22003KT 4SM -RA BR OVC011 08/07 A2984 RMK AO2 P0002 T00780072
Loading
Personal Weather Stations






























Interactive Weather Map
Tropical Storm Tracking
New forecast layout! Learn more

10-Day Weather Forecast

Advertisements
Track Severe Weather on mobile